Time;durP1;ratioP1;P1;durP2;ratioP2;P2;SDS_P1;SDS_P2;PMS_P1;PMS_P2;Temp;Humidity;BMP_temperature;BMP_pressure;BME280_temperature;BME280_humidity;BME280_pressure;Samples;Min_cycle;Max_cycle;Signal;HPM_P1;HPM_P2
2023/01/12 04:59:28;;;;;;;27.87;15.95;;;;;;;5.78;89.19;100997.50;5606023;31;81830;-56
2023/01/12 05:02:30;;;;;;;23.55;15.32;;;;;;;5.78;89.19;100997.50;5583876;31;33388;-56
2023/01/12 05:05:32;;;;;;;23.05;15.07;;;;;;;5.37;87.69;101012.56;5568823;32;34295;-56
2023/01/12 05:11:59;;;;;;;24.00;15.27;;;;;;;5.32;95.20;101019.59;5564002;32;34175;-56
2023/01/12 05:15:02;;;;;;;20.90;14.48;;;;;;;5.48;86.96;101010.94;5564075;32;33665;-57
2023/01/12 05:18:04;;;;;;;20.88;15.07;;;;;;;5.39;86.48;101021.09;5564195;32;34360;-56
2023/01/12 05:21:07;;;;;;;24.73;14.10;;;;;;;5.58;87.79;101021.00;5563759;32;33515;-56
2023/01/12 05:24:09;;;;;;;22.48;14.55;;;;;;;5.74;85.83;101016.84;5563962;32;34206;-57
2023/01/12 05:27:11;;;;;;;23.98;14.70;;;;;;;5.72;88.40;101026.87;5563875;32;34340;-57
2023/01/12 05:30:14;;;;;;;23.20;16.25;;;;;;;5.67;86.37;101022.28;5562800;32;34240;-57
2023/01/12 05:33:18;;;;;;;22.60;15.35;;;;;;;5.79;85.19;101022.25;5563657;32;34334;-57
2023/01/12 05:36:20;;;;;;;24.77;16.02;;;;;;;5.82;84.92;101019.13;5563886;32;34449;-56
2023/01/12 05:39:23;;;;;;;22.73;15.27;;;;;;;5.80;89.02;101027.37;5563574;32;33250;-56
2023/01/12 05:45:47;;;;;;;22.73;14.30;;;;;;;5.82;87.39;101035.91;5563642;32;33593;-57
2023/01/12 05:48:51;;;;;;;23.05;13.73;;;;;;;5.91;85.67;101030.25;5563755;32;33467;-57
2023/01/12 05:51:53;;;;;;;23.62;14.25;;;;;;;5.93;84.85;101031.66;5563757;32;33704;-57
2023/01/12 05:54:55;;;;;;;23.87;15.07;;;;;;;5.88;94.74;101023.53;5563527;32;33672;-57
2023/01/12 05:57:58;;;;;;;25.25;16.02;;;;;;;5.84;90.06;101023.19;5563497;32;33641;-56
2023/01/12 06:01:05;;;;;;;25.90;16.23;;;;;;;5.85;84.41;101013.34;5562298;32;33693;-58
2023/01/12 06:04:08;;;;;;;27.37;15.90;;;;;;;5.93;83.65;101025.50;5582690;31;34018;-57
2023/01/12 06:07:12;;;;;;;22.35;16.30;;;;;;;5.91;94.57;101011.62;5572944;31;33791;-57
2023/01/12 06:10:15;;;;;;;23.35;16.55;;;;;;;5.87;95.76;101016.59;5552638;32;34364;-57
2023/01/12 06:16:40;;;;;;;25.88;16.30;;;;;;;5.75;97.52;101015.78;5549950;32;33631;-57
2023/01/12 06:19:42;;;;;;;24.95;16.83;;;;;;;5.92;100.00;101023.87;5563343;32;34330;-57
2023/01/12 06:22:44;;;;;;;22.27;16.08;;;;;;;5.67;90.89;101026.78;5567805;32;32301;-57
2023/01/12 06:25:46;;;;;;;24.58;16.33;;;;;;;5.77;88.45;101029.69;5569845;32;33712;-56
2023/01/12 06:28:49;;;;;;;25.23;15.77;;;;;;;5.99;86.37;101035.22;5569403;32;34339;-57
2023/01/12 06:31:51;;;;;;;29.25;16.55;;;;;;;5.88;89.18;101045.62;5569715;32;33640;-57
2023/01/12 06:34:54;;;;;;;23.65;16.40;;;;;;;5.80;90.02;101053.97;5567224;32;34443;-57
2023/01/12 06:37:58;;;;;;;31.73;17.83;;;;;;;5.75;93.21;101053.03;5562943;32;34366;-57
2023/01/12 06:41:06;;;;;;;27.62;16.55;;;;;;;5.87;90.45;101059.19;5568929;32;33609;-56
2023/01/12 06:44:08;;;;;;;28.15;16.10;;;;;;;6.01;98.79;101060.56;5568844;32;33573;-57
2023/01/12 06:47:10;;;;;;;26.40;16.77;;;;;;;6.01;88.64;101065.09;5568550;32;33734;-56
2023/01/12 06:50:13;;;;;;;28.00;16.80;;;;;;;6.10;88.08;101069.84;5568901;32;33759;-56
2023/01/12 06:53:15;;;;;;;24.95;16.00;;;;;;;6.19;86.58;101074.78;5567889;32;33705;-56
2023/01/12 06:56:18;;;;;;;24.20;16.50;;;;;;;6.27;86.26;101083.22;5568798;32;34228;-57
2023/01/12 06:59:20;;;;;;;25.02;16.87;;;;;;;6.16;86.24;101073.44;5567098;32;33570;-57
2023/01/12 07:02:22;;;;;;;24.02;16.48;;;;;;;6.25;85.08;101076.50;5568070;32;34273;-57
2023/01/12 07:05:26;;;;;;;26.00;16.90;;;;;;;6.21;87.75;101076.19;5567946;32;34356;-57
2023/01/12 07:08:28;;;;;;;23.67;16.85;;;;;;;6.21;86.44;101080.69;5568081;32;34328;-58
2023/01/12 07:11:31;;;;;;;26.83;17.25;;;;;;;6.18;86.56;101081.16;5568343;32;33688;-57
2023/01/12 07:14:36;;;;;;;23.00;16.60;;;;;;;6.22;100.00;101087.63;5568085;32;33983;-57
2023/01/12 07:17:40;;;;;;;27.17;18.02;;;;;;;6.53;99.09;101095.22;5568617;32;34418;-57
2023/01/12 07:20:44;;;;;;;26.75;16.83;;;;;;;6.50;94.41;101102.88;5567173;32;33807;-56
2023/01/12 07:23:47;;;;;;;26.55;16.87;;;;;;;6.41;87.93;101104.28;5568317;32;33913;-57
2023/01/12 07:26:51;;;;;;;21.77;15.23;;;;;;;6.59;87.02;101096.16;5568523;32;34359;-57
2023/01/12 07:29:55;;;;;;;25.65;14.98;;;;;;;6.53;90.66;101100.56;5568602;32;33638;-58
2023/01/12 07:33:10;;;;;;;26.05;15.32;;;;;;;6.53;86.62;101107.75;5568683;32;33723;-57
2023/01/12 07:36:13;;;;;;;25.05;15.05;;;;;;;6.37;87.06;101100.47;5568255;32;33667;-57
2023/01/12 07:39:16;;;;;;;20.48;14.13;;;;;;;6.50;85.61;101106.34;5568027;32;33690;-57
2023/01/12 07:42:24;;;;;;;24.83;14.63;;;;;;;6.46;87.20;101109.72;5567616;32;33696;-56
2023/01/12 07:45:28;;;;;;;27.48;15.77;;;;;;;6.48;85.09;101118.28;5567758;32;34276;-56
2023/01/12 07:48:32;;;;;;;23.25;15.93;;;;;;;6.50;84.48;101106.34;5568349;32;33670;-58
2023/01/12 07:51:34;;;;;;;20.62;14.05;;;;;;;6.44;85.59;101104.63;5568212;32;34909;-57
2023/01/12 07:54:37;;;;;;;23.65;16.00;;;;;;;6.42;85.94;101109.34;5568063;32;33718;-57
2023/01/12 07:57:39;;;;;;;24.37;16.23;;;;;;;6.39;86.58;101128.50;5568234;32;34307;-57
2023/01/12 08:00:42;;;;;;;23.42;15.82;;;;;;;6.37;84.33;101116.47;5568031;32;33168;-57
2023/01/12 08:03:44;;;;;;;27.58;17.92;;;;;;;6.31;87.88;101112.88;5568184;31;33554;-57
2023/01/12 08:06:47;;;;;;;23.52;16.50;;;;;;;6.22;86.86;101112.41;5567209;32;33643;-57
2023/01/12 08:09:49;;;;;;;25.27;16.15;;;;;;;6.38;85.51;101116.22;5568082;32;34451;-57
2023/01/12 08:12:51;;;;;;;27.50;16.70;;;;;;;6.35;86.34;101120.12;5562714;32;33742;-57
2023/01/12 08:16:01;;;;;;;24.45;17.60;;;;;;;6.64;84.79;101124.75;5565737;32;33610;-58
2023/01/12 08:19:13;;;;;;;26.05;16.87;;;;;;;6.71;91.25;101123.53;5567473;32;33716;-58
2023/01/12 08:22:21;;;;;;;28.35;18.15;;;;;;;6.75;85.59;101131.87;5558270;32;34330;-57
2023/01/12 08:25:31;;;;;;;24.75;17.52;;;;;;;6.72;87.10;101129.69;5567860;32;34369;-57
2023/01/12 08:28:39;;;;;;;24.98;16.95;;;;;;;6.83;83.15;101132.31;5567582;32;34327;-56
2023/01/12 08:31:41;;;;;;;27.90;18.05;;;;;;;6.86;83.20;101131.06;5567887;32;33112;-57
2023/01/12 08:34:47;;;;;;;23.92;17.33;;;;;;;6.80;82.54;101129.31;5567616;32;33857;-57
2023/01/12 08:37:50;;;;;;;26.27;17.97;;;;;;;6.78;84.39;101126.06;5567523;32;34150;-57
2023/01/12 08:44:14;;;;;;;25.67;18.45;;;;;;;6.86;88.45;101130.25;5557661;32;34167;-58
2023/01/12 08:47:19;;;;;;;27.62;18.67;;;;;;;6.68;84.70;101131.22;5548399;32;34413;-57
2023/01/12 08:50:21;;;;;;;26.70;17.50;;;;;;;6.70;84.40;101129.13;5548622;32;34255;-57
2023/01/12 08:53:24;;;;;;;25.15;17.12;;;;;;;6.93;96.84;101117.59;5567215;32;33620;-57
2023/01/12 08:56:26;;;;;;;26.52;17.83;;;;;;;6.98;85.94;101129.13;5567330;32;33174;-58
2023/01/12 08:59:29;;;;;;;25.45;16.15;;;;;;;7.03;86.59;101125.78;5564848;32;33706;-57
2023/01/12 09:02:31;;;;;;;29.52;17.95;;;;;;;7.25;92.92;101126.72;5567418;32;33727;-57
2023/01/12 09:05:34;;;;;;;24.55;16.92;;;;;;;7.19;87.15;101129.53;5566002;32;34296;-58
2023/01/12 09:08:37;;;;;;;28.50;17.08;;;;;;;7.24;85.11;101132.28;5567474;32;34186;-57
2023/01/12 09:11:41;;;;;;;28.30;18.50;;;;;;;7.37;88.72;101133.84;5566940;32;33195;-57
2023/01/12 09:14:43;;;;;;;25.52;16.95;;;;;;;7.52;83.69;101124.25;5565707;32;33730;-57
2023/01/12 09:17:51;;;;;;;24.98;16.58;;;;;;;7.33;84.72;101130.03;5566437;32;34329;-58
2023/01/12 09:21:03;;;;;;;27.30;17.05;;;;;;;7.38;87.29;101130.12;5567127;32;34449;-58
2023/01/12 09:24:06;;;;;;;29.35;17.95;;;;;;;7.37;86.69;101123.19;5567498;32;33822;-57
2023/01/12 09:27:10;;;;;;;28.62;17.70;;;;;;;7.43;85.86;101125.69;5566062;32;33621;-57
2023/01/12 09:30:14;;;;;;;29.60;18.60;;;;;;;7.32;86.47;101125.75;5566670;32;33618;-58
2023/01/12 09:33:16;;;;;;;26.75;17.80;;;;;;;7.56;92.87;101135.25;5566469;32;34358;-57
2023/01/12 09:36:26;;;;;;;24.42;18.02;;;;;;;7.47;87.71;101137.50;5565165;32;33715;-57
2023/01/12 09:39:29;;;;;;;25.67;17.37;;;;;;;7.53;86.32;101133.06;5560380;32;34331;-57
2023/01/12 09:49:16;;;;;;;25.02;17.08;;;;;;;7.56;87.90;101123.78;5560039;32;34078;-58
2023/01/12 09:52:26;;;;;;;23.70;17.10;;;;;;;7.62;87.82;101107.59;5568054;32;33613;-57
2023/01/12 09:56:00;;;;;;;25.12;17.00;;;;;;;7.74;92.97;101115.50;5564041;32;33642;-57
2023/01/12 09:59:06;;;;;;;21.42;15.55;;;;;;;7.89;87.34;101114.97;5577107;31;33832;-57
2023/01/12 10:02:10;;;;;;;;;;;;;;;7.92;94.32;101111.81;5565639;32;33577;-57
2023/01/12 10:05:33;;;;;;;20.12;15.02;;;;;;;8.08;87.95;101110.12;5566133;32;34828;-58
2023/01/12 10:08:46;;;;;;;19.45;13.82;;;;;;;8.21;88.30;101099.94;5566929;32;33653;-58
2023/01/12 10:12:14;;;;;;;17.27;13.65;;;;;;;8.51;92.61;101097.91;5568451;32;33244;-58
2023/01/12 10:15:39;;;;;;;18.70;14.30;;;;;;;8.67;97.60;101099.72;5553102;32;33829;-57
2023/01/12 10:18:46;;;;;;;18.37;13.27;;;;;;;8.84;88.16;101103.16;5562090;32;34476;-57
2023/01/12 10:21:51;;;;;;;18.60;13.60;;;;;;;9.01;90.36;101094.22;5566124;32;33342;-57
2023/01/12 10:24:55;;;;;;;17.90;14.05;;;;;;;9.44;100.00;101089.78;5568025;32;34384;-57
2023/01/12 10:27:59;;;;;;;20.88;14.65;;;;;;;9.35;88.61;101092.94;5556347;32;33790;-57
2023/01/12 10:31:03;;;;;;;20.88;14.45;;;;;;;9.65;100.00;101096.94;5567332;32;33542;-57
2023/01/12 10:34:10;;;;;;;22.02;14.52;;;;;;;9.62;89.67;101090.22;5557152;32;34509;-57
2023/01/12 10:37:13;;;;;;;17.60;13.38;;;;;;;9.62;94.05;101089.41;5559713;32;33297;-57
2023/01/12 10:40:25;;;;;;;21.50;13.60;;;;;;;9.88;97.92;101096.56;5564116;32;33843;-57
2023/01/12 10:43:32;;;;;;;20.88;13.65;;;;;;;9.77;96.79;101089.53;5564371;32;33665;-58
2023/01/12 10:46:35;;;;;;;16.02;12.10;;;;;;;9.62;99.41;101090.22;5560760;32;34354;-58
2023/01/12 10:49:37;;;;;;;14.23;11.23;;;;;;;9.53;86.05;101089.06;5563687;32;34041;-57
2023/01/12 10:52:40;;;;;;;15.30;12.05;;;;;;;9.47;86.66;101086.59;5545370;32;33970;-57
2023/01/12 10:55:44;;;;;;;14.75;11.82;;;;;;;9.45;90.64;101083.38;5557185;32;33639;-57
2023/01/12 10:59:00;;;;;;;13.68;10.90;;;;;;;9.40;84.11;101081.47;5557930;32;34390;-57
2023/01/12 11:02:06;;;;;;;14.75;11.75;;;;;;;9.51;88.43;101082.38;5557748;32;33596;-58
2023/01/12 11:05:37;;;;;;;16.27;12.30;;;;;;;9.40;85.90;101074.25;5558439;32;33699;-57
2023/01/12 11:08:42;;;;;;;20.45;12.95;;;;;;;9.30;83.97;101070.69;5556609;32;35760;-57
2023/01/12 11:11:44;;;;;;;16.80;12.90;;;;;;;9.32;88.01;101066.69;5557765;32;33317;-58
2023/01/12 11:15:00;;;;;;;16.37;13.48;;;;;;;9.39;84.63;101061.94;5559221;32;33655;-58
2023/01/12 11:18:53;;;;;;;18.17;12.70;;;;;;;9.30;83.49;101058.09;5562798;32;34351;-57
2023/01/12 11:22:03;;;;;;;26.95;16.87;;;;;;;9.27;82.93;101055.97;5531489;32;33130;-57
2023/01/12 11:25:21;;;;;;;20.58;13.90;;;;;;;9.24;83.51;101056.47;5566255;32;33842;-57
2023/01/12 11:28:29;;;;;;;16.98;13.48;;;;;;;9.19;82.88;101045.72;5567687;32;34257;-59
2023/01/12 11:31:37;;;;;;;20.33;13.30;;;;;;;9.20;83.20;101055.34;5564035;32;33649;-57
2023/01/12 11:34:52;;;;;;;19.62;14.90;;;;;;;9.23;84.74;101051.34;5568592;32;32289;-58
2023/01/12 11:37:58;;;;;;;17.85;13.23;;;;;;;9.28;83.57;101046.06;5565205;32;33414;-57
2023/01/12 11:41:06;;;;;;;20.48;14.18;;;;;;;9.50;86.81;101044.06;5563568;32;33679;-57
2023/01/12 11:44:35;;;;;;;19.80;14.05;;;;;;;9.41;86.38;101042.97;5566049;32;33665;-57
2023/01/12 11:47:43;;;;;;;15.43;12.32;;;;;;;9.30;82.96;101031.34;5567542;32;33345;-58
2023/01/12 11:50:47;;;;;;;19.10;13.23;;;;;;;9.37;89.68;101040.00;5567189;32;34476;-57
2023/01/12 11:53:50;;;;;;;18.02;13.25;;;;;;;9.37;83.93;101036.47;5568607;32;33762;-57
2023/01/12 11:57:40;;;;;;;14.18;11.73;;;;;;;9.28;83.02;101041.50;5568177;32;33451;-57
2023/01/12 12:00:51;;;;;;;18.05;12.23;;;;;;;9.36;86.96;101043.69;5550373;32;34453;-57
2023/01/12 12:04:00;;;;;;;16.40;11.68;;;;;;;9.37;83.97;101033.81;5564947;32;33834;-57
2023/01/12 12:07:23;;;;;;;15.90;12.75;;;;;;;9.57;92.95;101033.16;5564930;32;33134;-57
2023/01/12 12:10:49;;;;;;;16.62;11.55;;;;;;;9.46;81.33;101028.78;5566733;32;33591;-57
2023/01/12 12:14:28;;;;;;;16.60;11.95;;;;;;;9.44;81.21;101021.03;5567841;32;33635;-56
2023/01/12 12:17:54;;;;;;;12.70;8.85;;;;;;;9.53;81.19;101019.47;5566817;32;33670;-57
2023/01/12 12:20:56;;;;;;;14.70;10.07;;;;;;;9.52;79.27;101022.41;5563450;32;33002;-57
2023/01/12 12:24:02;;;;;;;15.48;10.80;;;;;;;9.60;79.45;101028.12;5567919;32;34429;-56
2023/01/12 12:27:14;;;;;;;16.25;11.73;;;;;;;9.59;79.89;101028.34;5567628;32;33787;-56
2023/01/12 12:30:19;;;;;;;17.95;12.90;;;;;;;9.59;79.60;101020.31;5566322;32;34456;-57
2023/01/12 12:33:53;;;;;;;16.98;13.35;;;;;;;9.55;81.27;101017.34;5567600;32;33636;-57
2023/01/12 12:37:10;;;;;;;21.30;15.68;;;;;;;9.52;80.47;101025.09;5565569;32;34330;-57
2023/01/12 12:40:12;;;;;;;;;;;;;;;9.56;83.67;101020.84;5565669;32;33836;-56
2023/01/12 12:46:56;;;;;;;34.28;22.45;;;;;;;9.49;80.73;101023.72;5563036;32;34398;-57
2023/01/12 12:50:01;;;;;;;29.50;18.62;;;;;;;9.39;82.40;101029.81;5563901;32;33681;-57
2023/01/12 12:53:26;;;;;;;19.95;13.93;;;;;;;9.41;81.19;101016.19;5557271;32;33626;-57
2023/01/12 12:56:32;;;;;;;19.05;13.32;;;;;;;9.50;80.92;101011.16;5560024;32;34399;-57
2023/01/12 12:59:37;;;;;;;16.90;13.55;;;;;;;9.58;81.89;101005.34;5554358;32;34390;-57
2023/01/12 13:02:53;;;;;;;18.60;13.40;;;;;;;9.51;80.34;100997.53;5565611;32;33662;-57
2023/01/12 13:06:33;;;;;;;18.40;13.27;;;;;;;9.53;81.80;101008.75;5563450;32;33706;-57
2023/01/12 13:09:37;;;;;;;18.60;13.18;;;;;;;9.57;89.19;101011.72;5529562;31;33621;-57
2023/01/12 13:12:40;;;;;;;17.33;12.85;;;;;;;9.65;84.50;101000.56;5565295;32;34590;-57
2023/01/12 13:15:42;;;;;;;15.45;12.13;;;;;;;9.59;80.78;101006.94;5565882;32;33196;-57
2023/01/12 13:18:47;;;;;;;17.62;13.32;;;;;;;9.69;93.52;100996.28;5561874;32;33867;-57
2023/01/12 13:21:56;;;;;;;15.95;13.02;;;;;;;9.85;86.28;101003.34;5569764;32;34914;-56
2023/01/12 13:25:21;;;;;;;17.00;13.00;;;;;;;9.74;83.08;101004.38;5569145;32;33508;-57
2023/01/12 13:28:24;;;;;;;18.87;13.88;;;;;;;9.74;84.35;101004.38;5567105;32;33978;-57
2023/01/12 13:31:31;;;;;;;20.10;14.63;;;;;;;9.70;89.01;101000.59;5561950;32;33571;-57
2023/01/12 13:34:36;;;;;;;20.40;14.00;;;;;;;9.63;85.79;101006.19;5562422;32;34480;-57
2023/01/12 13:38:21;;;;;;;20.33;13.35;;;;;;;9.60;86.82;101005.88;5567710;32;34456;-57
2023/01/12 13:44:50;;;;;;;19.35;13.27;;;;;;;9.62;82.62;101009.09;5563962;32;32149;-57
2023/01/12 13:47:53;;;;;;;15.73;12.40;;;;;;;9.77;80.76;101005.72;5569564;32;33672;-57
2023/01/12 13:51:03;;;;;;;18.35;11.63;;;;;;;9.69;80.41;101015.03;5562038;32;33663;-57
2023/01/12 13:54:11;;;;;;;13.50;9.18;;;;;;;9.65;79.94;101019.28;5569275;32;34367;-57
2023/01/12 13:57:19;;;;;;;10.65;7.68;;;;;;;9.80;78.28;101019.41;5569216;32;34275;-57
2023/01/12 14:00:22;;;;;;;10.82;8.77;;;;;;;9.71;76.71;101014.78;5563357;32;33646;-57
2023/01/12 14:03:39;;;;;;;14.15;11.00;;;;;;;9.77;76.76;101014.56;5566056;31;34284;-58
2023/01/12 14:06:47;;;;;;;;;;;;;;;9.68;78.82;101012.63;5558572;32;33792;-57
2023/01/12 14:09:52;;;;;;;17.73;11.70;;;;;;;9.68;78.55;101017.97;5566379;32;34056;-57
2023/01/12 14:13:22;;;;;;;16.70;11.68;;;;;;;9.71;78.97;101017.47;5565993;32;34346;-57
2023/01/12 14:20:17;;;;;;;13.88;10.60;;;;;;;9.61;79.52;101013.66;5565035;32;33898;-57
2023/01/12 14:23:25;;;;;;;13.45;10.13;;;;;;;9.63;79.25;101008.88;5550550;32;33624;-58
2023/01/12 14:26:27;;;;;;;13.90;9.82;;;;;;;9.64;77.83;101015.81;5564495;32;33852;-57
2023/01/12 14:29:30;;;;;;;14.05;10.15;;;;;;;9.62;80.13;101007.22;5569343;32;33450;-57
2023/01/12 14:32:32;;;;;;;15.23;10.80;;;;;;;9.62;78.63;101003.75;5556679;32;34281;-58
2023/01/12 14:35:35;;;;;;;14.85;9.85;;;;;;;9.62;77.66;100996.53;5550959;32;34657;-57
2023/01/12 14:38:40;;;;;;;13.65;9.68;;;;;;;9.69;76.59;100993.63;5569004;32;33663;-57
2023/01/12 14:48:42;;;;;;;12.95;8.80;;;;;;;9.59;79.83;100996.22;5567877;32;34543;-56
2023/01/12 14:51:56;;;;;;;14.60;9.85;;;;;;;9.51;78.67;100988.69;5569284;32;33754;-56
2023/01/12 14:55:23;;;;;;;18.95;11.23;;;;;;;9.49;84.79;100974.75;5569633;32;34459;-56
2023/01/12 14:58:26;;;;;;;14.85;9.68;;;;;;;9.40;81.03;100977.09;5566251;32;33656;-57
2023/01/12 15:01:36;;;;;;;16.65;9.75;;;;;;;9.33;79.08;100980.00;5568637;32;33702;-56
2023/01/12 15:05:05;;;;;;;15.40;10.15;;;;;;;9.33;78.69;100989.91;5568258;31;33267;-57
2023/01/12 15:08:07;;;;;;;16.87;9.48;;;;;;;9.16;82.09;100982.00;5565991;32;33733;-57
2023/01/12 15:11:09;;;;;;;14.50;9.43;;;;;;;9.13;84.36;100987.88;5566563;32;33775;-57
2023/01/12 15:14:21;;;;;;;19.25;10.10;;;;;;;9.00;79.59;100980.28;5569117;32;33671;-57
2023/01/12 15:27:56;;;;;;;18.48;10.50;;;;;;;8.70;83.90;100986.97;5567595;32;33623;-56
2023/01/12 15:30:58;;;;;;;14.90;9.30;;;;;;;8.66;81.65;100983.97;5568742;32;34370;-56
2023/01/12 15:34:02;;;;;;;16.05;10.30;;;;;;;8.67;83.44;100984.78;5564733;32;33332;-57
2023/01/12 15:37:04;;;;;;;14.75;9.90;;;;;;;8.53;83.03;100995.06;5568499;32;33839;-57
2023/01/12 15:40:11;;;;;;;16.08;10.43;;;;;;;8.58;93.34;100991.66;5565262;32;34319;-57
2023/01/12 15:43:15;;;;;;;20.42;11.60;;;;;;;8.50;81.61;100992.91;5548253;32;34390;-57
2023/01/12 15:46:18;;;;;;;25.00;11.68;;;;;;;8.46;81.75;100999.81;5555104;32;33637;-56
2023/01/12 15:49:21;;;;;;;28.02;15.43;;;;;;;8.34;87.19;100991.88;5567221;32;33734;-57
2023/01/12 15:52:24;;;;;;;23.73;15.27;;;;;;;8.38;88.20;101002.94;5568588;32;33723;-57
2023/01/12 15:55:30;;;;;;;22.62;14.65;;;;;;;8.27;85.02;101001.16;5564893;32;33706;-57
2023/01/12 15:58:32;;;;;;;23.10;14.80;;;;;;;8.20;84.49;101004.00;5568652;32;33934;-57
2023/01/12 16:01:41;;;;;;;22.25;15.40;;;;;;;8.15;81.99;101009.31;5568145;32;34328;-57
2023/01/12 16:04:43;;;;;;;25.55;16.42;;;;;;;8.13;81.42;101009.53;5568248;31;33925;-57
2023/01/12 16:07:46;;;;;;;24.77;17.12;;;;;;;8.06;84.94;101002.78;5568386;32;34325;-56
2023/01/12 16:11:08;;;;;;;24.80;17.52;;;;;;;7.88;86.15;101007.38;5567959;32;33444;-56
2023/01/12 16:14:11;;;;;;;26.05;17.75;;;;;;;7.92;82.55;101021.03;5567231;32;33657;-56
2023/01/12 16:17:14;;;;;;;36.55;17.73;;;;;;;7.84;86.15;101014.22;5567746;32;34409;-57
2023/01/12 16:20:18;;;;;;;26.77;16.60;;;;;;;7.87;85.38;101019.09;5568255;32;33674;-57
2023/01/12 16:23:20;;;;;;;26.37;17.87;;;;;;;7.85;82.49;101015.88;5568309;32;33786;-56
2023/01/12 16:26:24;;;;;;;27.02;19.25;;;;;;;7.78;83.02;101017.88;5568364;32;33665;-57
2023/01/12 16:29:26;;;;;;;29.85;18.70;;;;;;;7.77;90.77;101017.06;5568475;32;33712;-56
2023/01/12 16:32:28;;;;;;;29.85;18.48;;;;;;;7.53;85.72;101019.13;5564579;32;33811;-56
2023/01/12 16:35:32;;;;;;;30.12;18.77;;;;;;;7.52;83.47;101016.72;5564858;32;33691;-56
2023/01/12 16:38:34;;;;;;;27.08;19.80;;;;;;;7.54;83.23;101025.28;5567774;32;33711;-56
2023/01/12 16:41:37;;;;;;;32.88;20.05;;;;;;;7.41;83.65;101022.94;5563419;32;34424;-56
2023/01/12 16:44:40;;;;;;;29.60;20.02;;;;;;;7.39;84.93;101017.06;5548905;32;33737;-56
